Olmito, Texas
Current Conditions -  °F | °C
As of 8:53 PM on Friday 19 Dec 2014 (Local Time) from KBRO Reporting Station
Overcast Overcast  
Wind Chill: 16°   Ceiling: 1100
Heat Index: 16°   Visibility: 10mi
Dew Point: 14°   Wind: 10mph
Humidity: 87%   Direction: 340°NNW
Pressure: 30.08"   Gusts: NA
Location:  26.02°N, 97.53°W
Report Text: KBRO 200253Z 34009KT 10SM OVC011 16/14 A3008 RMK AO2 SLP185 T01610139 51020
Loading
Personal Weather Stations






























Interactive Weather Map New forecast layout! Learn more

10-Day Weather Forecast

Advertisements
Track Severe Weather on mobile